KLEW/LEW METAR and TAF weather

Enter ICAO airport designator
Station Type Date Time Source
KLEW METAR 2022/08/12 13:56 UTC NOAA

KLEW 121356Z AUTO 31008KT 10SM CLR 20/13 A2997 RMK AO2 SLP154 T02000133


Station Type Date Time Source
KLEW Decoded METAR 2022/08/12 13:56 UTC NOAA

Auburn-Lewiston, ME, United States (KLEW) 44-03N 070-17W
Aug 12, 2022 - 09:56 AM EDT / 2022.08.12 1356 UTC
Wind: from the NW (310 degrees) at 9 MPH (8 KT):0
Visibility: 10 mile(s):0
Sky conditions: clear
Temperature: 68.0 F (20.0 C)
Dew Point: 55.9 F (13.3 C)
Relative Humidity: 65%
Pressure (altimeter): 29.97 in. Hg (1014 hPa)
ob: KLEW 121356Z AUTO 31008KT 10SM CLR 20/13 A2997 RMK AO2 SLP154 T02000133
cycle: 14

Station Type Date Time Source
KLEW TAF UTC NOAA

Error!

Example: see airport list